KTCC

Details ICAO KTCC (TCC)
Name Tucumcari Muni
Region United States
Timezone America/Denver (UTC-6.0)
Plans Departing 3
Arriving 4
Stats Elevation 4,065 ft / 1,239 m (AMSL)
Location 35.183045° -103.603324°
Runways 2
Magnetic Variation 7.104° E
Sunrise 2018-05-20 11:48:20 UTC / 2018-05-20 05:48:20 Local
Sunset 2018-05-21 01:56:26 UTC / 2018-05-20 19:56:26 Local
Advertisement - Login to hide

Runways

ID Width Length Bearing (true) Bearing (mag) Surface Threshold Offset Overrun Length
03 100 ft / 30 m 7,102 ft / 2,165 m 44.91° 37.81° Asphalt 0 ft / 0 m 0 ft / 0 m
08 60 ft / 18 m 4,590 ft / 1,399 m 90.00° 82.90° Asphalt 0 ft / 0 m 0 ft / 0 m
21 100 ft / 30 m 7,102 ft / 2,165 m 224.92° 217.82° Asphalt 0 ft / 0 m 0 ft / 0 m
26 60 ft / 18 m 4,590 ft / 1,399 m 270.01° 262.91° Asphalt 0 ft / 0 m 0 ft / 0 m

Map

Weather


0- 5 10 15 20 25 30 35+ Temperature / ° C

Clouds and Precipitation
Forecast for 2018-05-20 12:00 UTC. Updated an hour ago

Ground ~20,000 ft ~40,000 ft Winds

METAR

KTCC 200953Z AUTO 04011KT 10SM CLR 11/08 A3012 RMK AO2 SLP153 T01110078

TAF

TAF KTCC 200523Z 2006/2106 06015G25KT P6SM VCSH OVC035 FM200800 05010KT P6SM OVC015 FM201600 06008KT P6SM OVC025 FM202000 11008KT P6SM SCT040 FM210000 14008KT P6SM SCT030

Frequencies

Recorded 119.27 MHz ASOS
Unicom 122.95 MHz CTAF/UNICOM
Warning: Do not use this data for real-world aviation or navigation. No guarantee of current accuracy is given.